• Join FlightAware (Why Join?)
  • Login
  • US Flag 
07:18AM EDT


 

Airport Tracker/Info


-or-


 

Live Flight TrackerFlight Track Log ✈ LOF3416 ✈ 08-Jul-2013 ✈ KSGF - KORD

Flight Track Log - Related Links

Times and Time Zones

All times are in EDT time to prevent confusion due to time zone crossing. See the LOF3416 flight status page for this flight to view local times or setup timezone preferences in your user account.

Time Position Orientation Groundspeed Altitude Reporting Facility
EDT Latitude Longitude Course Direction KTS MPH feet Rate Location/Type
07:41PM 37.2892 -93.1961 33° Northeast 261 300 9,300  Level Kansas City Center
07:42PM 37.3689 -93.1272 34° Northeast 278 320 11,500 1,800 Climbing Kansas City Center
07:43PM 37.4419 -93.0661 34° Northeast 299 344 13,000 1,440 Climbing Kansas City Center
07:44PM 37.7340 -92.9328 38° Northeast  Level FlightAware Approximate
07:44PM 37.5192 -93.0028 33° Northeast 319 367 14,500  Level Kansas City Center
07:45PM 37.8147 -92.8521 38° Northeast  Level FlightAware Approximate
07:45PM 37.5975 -92.9383 33° Northeast 331 381 16,000  Level Kansas City Center
07:46PM 37.6764 -92.8703 34° Northeast 341 392 17,400 1,200 Climbing Kansas City Center
07:47PM 37.7569 -92.8011 34° Northeast 346 398 18,500 1,140 Climbing Kansas City Center
07:48PM 37.8489 -92.7225 34° Northeast 359 413 19,800 1,200 Climbing Kansas City Center
07:49PM 37.9347 -92.6494 34° Northeast 368 423 21,000 1,140 Climbing Kansas City Center
07:50PM 38.0219 -92.5739 34° Northeast 377 434 22,200 1,140 Climbing Kansas City Center
07:51PM 38.1108 -92.4981 34° Northeast 383 441 23,400 1,260 Climbing Kansas City Center
07:52PM 38.2156 -92.4075 34° Northeast 386 444 24,800 1,200 Climbing Kansas City Center
07:53PM 38.3050 -92.3289 35° Northeast 386 444 26,000 1,020 Climbing Kansas City Center
07:54PM 38.3944 -92.2517 34° Northeast 386 444 27,000 480 Climbing Kansas City Center
07:55PM 38.4881 -92.1706 34° Northeast 394 453 27,000  Level Kansas City Center
07:56PM 38.5889 -92.0828 34° Northeast 415 478 27,000  Level Kansas City Center
07:57PM 38.6925 -91.9908 35° Northeast 435 501 27,000  Level Kansas City Center
07:58PM 38.7986 -91.8969 35° Northeast 449 517 27,000  Level Kansas City Center
07:59PM 38.9047 -91.8033 34° Northeast 457 526 27,000  Level Kansas City Center
08:00PM 39.0342 -91.6892 34° Northeast 465 535 27,000  Level Kansas City Center
08:01PM 39.1431 -91.5917 35° Northeast 470 541 27,000  Level Kansas City Center
08:02PM 39.2511 -91.4950 35° Northeast 473 544 27,000  Level Kansas City Center
08:03PM 39.3583 -91.3986 35° Northeast 471 542 27,000  Level Kansas City Center
08:04PM 39.4656 -91.3014 35° Northeast 469 540 27,000  Level Kansas City Center
08:05PM 39.5739 -91.2036 35° Northeast 470 541 27,000  Level Kansas City Center
08:06PM 39.6808 -91.1067 35° Northeast 470 541 27,000  Level Kansas City Center
08:07PM 39.7906 -90.9981 37° Northeast 473 544 27,000  Level Kansas City Center
08:08PM 39.9106 -90.8772 38° Northeast 472 543 27,000  Level Kansas City Center
08:10PM 40.0117 -90.7667 40° Northeast 473 544 27,000  Level Kansas City Center
08:11PM 40.0972 -90.6314 50° Northeast 479 551 27,000  Level Kansas City Center
08:12PM 40.1769 -90.4928 53° Northeast 479 551 27,000  Level Kansas City Center
08:13PM 40.2586 -90.3550 52° Northeast 480 552 27,000  Level Kansas City Center
08:14PM 40.3544 -90.2353 44° Northeast 477 549 27,000  Level Kansas City Center
08:15PM 40.4481 -90.1153 44° Northeast 474 545 27,000  Level Kansas City Center
08:16PM 40.5411 -89.9925 45° Northeast 470 541 27,000 -300 Level Chicago Center
08:17PM 40.6506 -89.8447 46° Northeast 470 541 26,500 -1,380 Descending Chicago Center
08:18PM 40.7472 -89.7269 43° Northeast 473 544 24,200 -1,260 Descending Chicago Center
08:19PM 40.8328 -89.6142 45° Northeast 439 505 24,000 -120 Descending Chicago Center
08:20PM 40.9100 -89.5128 45° Northeast 431 496 24,000 -180 Level Chicago Center
08:21PM 41.0139 -89.3781 44° Northeast 435 501 23,700 -840 Descending Chicago Center
08:22PM 41.1006 -89.2625 45° Northeast 442 509 22,300 -1,740 Descending Chicago Center
08:23PM 41.1911 -89.1400 45° Northeast 439 505 20,200 -2,040 Descending Chicago Center
08:24PM 41.2750 -89.0303 44° Northeast 429 494 18,200 -1,860 Descending Chicago Center
08:25PM 41.3506 -88.9264 46° Northeast 398 458 16,400 -1,920 Descending Chicago Center
08:26PM 41.4236 -88.8281 45° Northeast 378 435 14,300 -2,100 Descending Chicago Center
08:27PM 41.4967 -88.7300 45° Northeast 374 430 12,100 -1,620 Descending Chicago Center
08:28PM 41.5586 -88.5892 60° Northeast 372 428 11,000 -540 Descending Chicago Center
08:29PM 41.6097 -88.4653 61° Northeast 380 437 11,000  Level Chicago Center
08:30PM 41.6744 -88.3544 52° Northeast 377 434 11,000  Level Chicago Center
08:31PM 41.7383 -88.2439 52° Northeast 375 432 11,000  Level Chicago Center
08:32PM 41.8014 -88.1344 52° Northeast 373 429 11,000 -300 Level Chicago Center
08:33PM 41.8617 -88.0286 53° Northeast 360 414 10,500 -840 Descending Chicago Center
08:34PM 41.8833 -87.9500 70° East 322 371 9,700 -1,440 Descending Chicago TRACON
08:35PM 41.8833 -87.8333 90° East 309 356 8,300 -1,740 Descending Chicago TRACON
08:36PM 41.8833 -87.7167 90° East 296 341 6,300 -1,800 Descending Chicago TRACON
08:36PM 41.8842 -87.6694 89° East 302 348 5,600 -900 Descending Chicago Center
08:37PM 41.8844 -87.5647 90° East 291 335 5,000 -300 Descending Chicago Center
08:38PM 41.8833 -87.4636 91° East 282 325 5,000  Level Chicago Center
08:39PM 41.8831 -87.3697 90° East 264 304 5,000  Level Chicago Center
08:41PM 41.9378 -87.3153 36° Northeast 235 270 5,000  Level Chicago Center
08:42PM 41.9700 -87.3675 310° West 240 276 5,000  Level Chicago Center
08:43PM 41.9681 -87.4436 268° West 208 239 5,000  Level Chicago Center
08:44PM 41.9686 -87.5058 271° West 179 206 5,000 -60 Level Chicago Center
08:45PM 41.9689 -87.5669 270° West 166 191 4,900 -540 Descending Chicago Center
08:46PM 41.9694 -87.6433 271° West 171 197 4,000 -900 Descending Chicago Center
08:47PM 41.9692 -87.7078 270° West 172 198 3,100 -840 Descending Chicago Center
08:48PM 41.9689 -87.7697 270° West 171 197 2,300 -780 Descending Chicago Center
08:49PM 41.9689 -87.8197 270° West 158 182 1,600 -600 Descending Chicago Center
08:50PM 41.9689 -87.8681 270° West 142 163 1,100 -540 Descending Chicago Center